Aérodrome :
LOGIN :

S'inscrire | Disclaimer

   EN    FR    IT 

 










Légende :    VFR   VFR Marginal   IFR   IFR Intensif   IFR Très Intensif
Visi : 
Plafond : 
>= 8 km
>= 3000ft
5 à 8 km
1000 à 3000 ft
1500m à 5 km
500 à 1000 ft
800 à 1500m
200 à 500 ft
< 800m
< 200 ft
Symboles :   Orages  Brouillard  Fortes neiges  Fortes précipitations  Vent > 20 kt
SIGMETs :   Divers  Orages  Givrage  Turbulence  Onde Orograph.  Cendres Volcan.







- Altitude de l'aérodrome : 699 ft
- Code IATA : PAD


EDLP - Paderborn Lippstadt

DERNIER METAR :
  • 191150Z 25008KT 210V300 8000 BKN013 18/15 Q1024

METARs EXPIRÉS :
  • 191120Z 25007KT 210V310 8000 BKN013 18/15 Q1024
  • 191050Z 25008KT 220V310 8000 FEW009 BKN012 18/14 Q1024
  • 191020Z 25007KT 210V290 7000 -RA FEW009 BKN011 17/15 Q1024
  • 190950Z 25008KT 210V310 9000 -RA BKN013 17/14 Q1024
  • 190920Z 24009KT 9000 BKN014 18/14 Q1024

TAF TAF EDLP
Valide du 19 à 12h jusqu'au 20 à 12h UTC


191100Z 1912/2012 26008KT 9999 BKN012
BECMG 1912/1914 BKN015
BECMG 1918/1921 VRB03KT
BECMG 2005/2007 21006KT
Pas de NOTAMs connus pour ce terrain.



MET'MAP, la Météo Aéronautique d'un coup d'oeil ! - Copyright ORBIFLY Décembre 2007 - Disclaimer

ORBIFLY MET'MAP TEAM :

Programmation & Développement : Alexandra Zaïnal
Conception & Développement : Baudouin d'Aumeries
Co-Programmation & Développement : Marc-Olivier Méhu
Soutien technique & logistique : Manuel Goepfert

Contact : metmap@orbifly.com




SOURCES & CREDITS :

   NOAA